SWA6624 KBWI-KSDF
Flight info
| Callsign | SWA6624 |
|---|---|
| Flight time | 1h 25m |
| Altitude | 38000 |
| Route | FOXHL1 OTTTO Q68 YOCKY LEDDL1 |
| Aircraft | B738/M-SDE2E3GHIJ4J7P2RWZ/LB1D1 |
Departure
| Time | 2026-05-03 22:08 |
|---|---|
| Airport | Baltimore/Washington International Thurgood Marshall Airport (KBWI) |
Arrival
| Time | 2026-05-03 23:33 |
|---|---|
| Airport | Louisville Muhammad Ali International Airport (KSDF) |
| Time | Latitude | Longitude | Altitude | Speed | Heading |
|---|---|---|---|---|---|
| 2026-05-03 22:00 | 39.17603 | -76.66905 | 150 ft | 0 kts | 352° |
| 2026-05-03 22:02 | 39.17589 | -76.66903 | 150 ft | 3 kts | 358° |
| 2026-05-03 22:02 | 39.17569 | -76.66904 | 149 ft | 3 kts | 13° |
| 2026-05-03 22:02 | 39.17551 | -76.66913 | 149 ft | 3 kts | 38° |
| 2026-05-03 22:02 | 39.17539 | -76.66930 | 149 ft | 3 kts | 76° |
| 2026-05-03 22:03 | 39.17538 | -76.66943 | 149 ft | 0 kts | 94° |
| 2026-05-03 22:05 | 39.17538 | -76.66942 | 149 ft | 1 kts | 94° |
| 2026-05-03 22:05 | 39.17537 | -76.66921 | 149 ft | 4 kts | 94° |
| 2026-05-03 22:05 | 39.17534 | -76.66864 | 148 ft | 8 kts | 94° |
| 2026-05-03 22:05 | 39.17529 | -76.66773 | 148 ft | 12 kts | 94° |
| 2026-05-03 22:06 | 39.17523 | -76.66655 | 148 ft | 15 kts | 94° |
| 2026-05-03 22:06 | 39.17519 | -76.66503 | 145 ft | 19 kts | 91° |
| 2026-05-03 22:06 | 39.17490 | -76.66327 | 143 ft | 22 kts | 112° |
| 2026-05-03 22:06 | 39.17453 | -76.66139 | 144 ft | 22 kts | 96° |
| 2026-05-03 22:07 | 39.17442 | -76.65957 | 144 ft | 10 kts | 94° |
| 2026-05-03 22:07 | 39.17404 | -76.65894 | 145 ft | 10 kts | 173° |
| 2026-05-03 22:07 | 39.17331 | -76.65904 | 147 ft | 11 kts | 201° |
| 2026-05-03 22:07 | 39.17306 | -76.65994 | 145 ft | 13 kts | 270° |
| 2026-05-03 22:08 | 39.17317 | -76.66332 | 144 ft | 73 kts | 273° |
| 2026-05-03 22:08 | 39.17383 | -76.67256 | 152 ft | 134 kts | 276° |
| 2026-05-03 22:08 | 39.17481 | -76.68537 | 691 ft | 145 kts | 277° |
| 2026-05-03 22:08 | 39.17669 | -76.69820 | 1533 ft | 143 kts | 285° |
| 2026-05-03 22:09 | 39.17932 | -76.71067 | 2125 ft | 161 kts | 285° |
| 2026-05-03 22:09 | 39.18156 | -76.72535 | 2201 ft | 166 kts | 282° |
| 2026-05-03 22:09 | 39.18396 | -76.74153 | 2366 ft | 202 kts | 282° |
| 2026-05-03 22:10 | 39.19006 | -76.78046 | 3202 ft | 236 kts | 283° |
| 2026-05-03 22:10 | 39.19337 | -76.80172 | 3903 ft | 243 kts | 282° |
| 2026-05-03 22:10 | 39.19676 | -76.82333 | 4781 ft | 247 kts | 283° |
| 2026-05-03 22:10 | 39.20019 | -76.84516 | 5743 ft | 250 kts | 283° |
| 2026-05-03 22:11 | 39.20369 | -76.86733 | 6679 ft | 251 kts | 283° |
| 2026-05-03 22:11 | 39.20721 | -76.88953 | 7502 ft | 256 kts | 283° |
| 2026-05-03 22:11 | 39.21081 | -76.91215 | 8350 ft | 259 kts | 283° |
| 2026-05-03 22:11 | 39.21320 | -76.92723 | 8938 ft | 260 kts | 283° |
| 2026-05-03 22:12 | 39.21685 | -76.95028 | 9784 ft | 264 kts | 284° |
| 2026-05-03 22:12 | 39.22105 | -76.98190 | 10522 ft | 284 kts | 276° |
| 2026-05-03 22:12 | 39.22149 | -77.00854 | 10729 ft | 309 kts | 272° |
| 2026-05-03 22:12 | 39.22142 | -77.02737 | 10843 ft | 324 kts | 272° |
| 2026-05-03 22:13 | 39.22146 | -77.05725 | 11210 ft | 339 kts | 272° |
| 2026-05-03 22:13 | 39.22173 | -77.08789 | 11928 ft | 342 kts | 272° |
| 2026-05-03 22:13 | 39.22044 | -77.11858 | 12780 ft | 346 kts | 261° |
| 2026-05-03 22:13 | 39.21201 | -77.14783 | 13711 ft | 351 kts | 245° |
| 2026-05-03 22:14 | 39.19760 | -77.17364 | 14505 ft | 358 kts | 231° |
| 2026-05-03 22:14 | 39.17996 | -77.19646 | 15278 ft | 362 kts | 229° |
| 2026-05-03 22:14 | 39.16194 | -77.21957 | 16025 ft | 365 kts | 229° |
| 2026-05-03 22:14 | 39.14421 | -77.24252 | 16796 ft | 367 kts | 230° |
| 2026-05-03 22:15 | 39.12629 | -77.26595 | 17598 ft | 369 kts | 230° |
| 2026-05-03 22:15 | 39.10828 | -77.28964 | 18342 ft | 371 kts | 230° |
| 2026-05-03 22:15 | 39.09017 | -77.31351 | 18973 ft | 374 kts | 230° |
| 2026-05-03 22:15 | 39.07192 | -77.33763 | 19602 ft | 376 kts | 232° |
| 2026-05-03 22:16 | 39.05586 | -77.36403 | 20215 ft | 373 kts | 242° |
| 2026-05-03 22:16 | 39.04331 | -77.39314 | 20839 ft | 372 kts | 248° |
| 2026-05-03 22:16 | 39.03422 | -77.42420 | 21437 ft | 371 kts | 257° |
| 2026-05-03 22:16 | 39.02725 | -77.45631 | 22035 ft | 373 kts | 257° |
| 2026-05-03 22:17 | 39.02010 | -77.48853 | 22618 ft | 376 kts | 257° |
| 2026-05-03 22:17 | 39.01278 | -77.52095 | 23195 ft | 378 kts | 257° |
| 2026-05-03 22:17 | 39.00539 | -77.55344 | 23736 ft | 380 kts | 257° |
| 2026-05-03 22:17 | 38.99790 | -77.58622 | 24193 ft | 382 kts | 257° |
| 2026-05-03 22:18 | 38.99037 | -77.61906 | 24685 ft | 383 kts | 257° |
| 2026-05-03 22:18 | 38.98282 | -77.65189 | 25182 ft | 384 kts | 256° |
| 2026-05-03 22:18 | 38.97525 | -77.68482 | 25653 ft | 385 kts | 256° |
| 2026-05-03 22:18 | 38.96762 | -77.71793 | 26098 ft | 386 kts | 256° |
| 2026-05-03 22:19 | 38.95998 | -77.75106 | 26539 ft | 387 kts | 256° |
| 2026-05-03 22:19 | 38.95239 | -77.78391 | 26953 ft | 389 kts | 256° |
| 2026-05-03 22:19 | 38.94467 | -77.81733 | 27368 ft | 390 kts | 256° |
| 2026-05-03 22:19 | 38.93692 | -77.85079 | 27768 ft | 391 kts | 256° |
| 2026-05-03 22:20 | 38.92911 | -77.88446 | 28162 ft | 393 kts | 256° |
| 2026-05-03 22:20 | 38.92128 | -77.91818 | 28529 ft | 394 kts | 255° |
| 2026-05-03 22:20 | 38.91341 | -77.95203 | 28887 ft | 395 kts | 255° |
| 2026-05-03 22:20 | 38.90554 | -77.98580 | 29342 ft | 394 kts | 255° |
| 2026-05-03 22:21 | 38.89772 | -78.01935 | 29968 ft | 389 kts | 255° |
| 2026-05-03 22:21 | 38.89008 | -78.05205 | 30501 ft | 385 kts | 255° |
| 2026-05-03 22:21 | 38.88237 | -78.08501 | 30875 ft | 385 kts | 255° |
| 2026-05-03 22:21 | 38.87468 | -78.11793 | 31232 ft | 384 kts | 255° |
| 2026-05-03 22:22 | 38.86698 | -78.15074 | 31653 ft | 382 kts | 255° |
| 2026-05-03 22:22 | 38.85967 | -78.18304 | 32061 ft | 380 kts | 257° |
| 2026-05-03 22:22 | 38.85500 | -78.21625 | 32462 ft | 377 kts | 263° |
| 2026-05-03 22:22 | 38.85355 | -78.24981 | 32869 ft | 377 kts | 269° |
| 2026-05-03 22:23 | 38.85403 | -78.28343 | 33246 ft | 376 kts | 269° |
| 2026-05-03 22:23 | 38.85412 | -78.31694 | 33638 ft | 374 kts | 268° |
| 2026-05-03 22:23 | 38.85407 | -78.35027 | 34035 ft | 372 kts | 268° |
| 2026-05-03 22:23 | 38.85243 | -78.38338 | 34314 ft | 371 kts | 262° |
| 2026-05-03 22:24 | 38.84741 | -78.41598 | 34478 ft | 374 kts | 257° |
| 2026-05-03 22:24 | 38.84170 | -78.44865 | 34663 ft | 376 kts | 258° |
| 2026-05-03 22:24 | 38.83618 | -78.48161 | 34919 ft | 376 kts | 258° |
| 2026-05-03 22:24 | 38.83082 | -78.51406 | 35134 ft | 378 kts | 258° |
| 2026-05-03 22:25 | 38.82539 | -78.54711 | 35344 ft | 379 kts | 258° |
| 2026-05-03 22:25 | 38.81993 | -78.58028 | 35566 ft | 380 kts | 258° |
| 2026-05-03 22:25 | 38.81444 | -78.61351 | 35782 ft | 381 kts | 258° |
| 2026-05-03 22:25 | 38.80892 | -78.64680 | 35991 ft | 382 kts | 258° |
| 2026-05-03 22:26 | 38.80337 | -78.68019 | 36201 ft | 383 kts | 258° |
| 2026-05-03 22:26 | 38.79780 | -78.71362 | 36416 ft | 384 kts | 258° |
| 2026-05-03 22:26 | 38.79220 | -78.74716 | 36614 ft | 385 kts | 258° |
| 2026-05-03 22:26 | 38.78658 | -78.78073 | 36819 ft | 386 kts | 258° |
| 2026-05-03 22:27 | 38.78094 | -78.81435 | 37000 ft | 387 kts | 258° |
| 2026-05-03 22:27 | 38.77534 | -78.84771 | 37179 ft | 388 kts | 257° |
| 2026-05-03 22:27 | 38.76963 | -78.88162 | 37347 ft | 390 kts | 257° |
| 2026-05-03 22:27 | 38.76386 | -78.91582 | 37540 ft | 391 kts | 257° |
| 2026-05-03 22:28 | 38.75810 | -78.94999 | 37710 ft | 392 kts | 257° |
| 2026-05-03 22:28 | 38.75231 | -78.98416 | 37933 ft | 392 kts | 257° |
| 2026-05-03 22:28 | 38.74650 | -79.01842 | 38060 ft | 394 kts | 257° |
| 2026-05-03 22:29 | 38.73486 | -79.08686 | 38052 ft | 394 kts | 257° |
| 2026-05-03 22:29 | 38.72322 | -79.15517 | 38063 ft | 391 kts | 257° |
| 2026-05-03 22:30 | 38.71161 | -79.22295 | 38071 ft | 388 kts | 257° |
| 2026-05-03 22:30 | 38.70018 | -79.29088 | 38072 ft | 392 kts | 258° |
| 2026-05-03 22:31 | 38.68904 | -79.35945 | 38081 ft | 394 kts | 258° |
| 2026-05-03 22:31 | 38.67783 | -79.42816 | 38082 ft | 394 kts | 257° |
| 2026-05-03 22:32 | 38.66653 | -79.49690 | 38084 ft | 395 kts | 257° |
| 2026-05-03 22:32 | 38.65524 | -79.56517 | 38081 ft | 395 kts | 257° |
| 2026-05-03 22:33 | 38.64388 | -79.63369 | 38081 ft | 393 kts | 257° |
| 2026-05-03 22:33 | 38.63244 | -79.70215 | 38088 ft | 393 kts | 257° |
| 2026-05-03 22:34 | 38.62025 | -79.77017 | 38089 ft | 392 kts | 256° |
| 2026-05-03 22:34 | 38.60778 | -79.83815 | 38077 ft | 392 kts | 256° |
| 2026-05-03 22:35 | 38.59540 | -79.90595 | 38102 ft | 391 kts | 256° |
| 2026-05-03 22:35 | 38.58303 | -79.97374 | 38103 ft | 391 kts | 256° |
| 2026-05-03 22:36 | 38.57064 | -80.04144 | 38108 ft | 391 kts | 256° |
| 2026-05-03 22:36 | 38.55850 | -80.10922 | 38100 ft | 391 kts | 259° |
| 2026-05-03 22:37 | 38.55587 | -80.17834 | 38102 ft | 395 kts | 271° |
| 2026-05-03 22:37 | 38.56004 | -80.24836 | 38119 ft | 394 kts | 270° |
| 2026-05-03 22:38 | 38.56361 | -80.31840 | 38104 ft | 395 kts | 270° |
| 2026-05-03 22:38 | 38.56708 | -80.38831 | 38110 ft | 395 kts | 270° |
| 2026-05-03 22:39 | 38.57056 | -80.45851 | 38096 ft | 396 kts | 270° |
| 2026-05-03 22:39 | 38.57403 | -80.52876 | 38095 ft | 396 kts | 270° |
| 2026-05-03 22:40 | 38.57642 | -80.59900 | 38082 ft | 394 kts | 265° |
| 2026-05-03 22:40 | 38.56758 | -80.66734 | 38089 ft | 392 kts | 255° |
| 2026-05-03 22:41 | 38.55415 | -80.73491 | 38096 ft | 393 kts | 255° |
| 2026-05-03 22:41 | 38.54104 | -80.80279 | 38085 ft | 394 kts | 255° |
| 2026-05-03 22:42 | 38.52801 | -80.87035 | 38084 ft | 394 kts | 255° |
| 2026-05-03 22:42 | 38.51484 | -80.93832 | 38084 ft | 395 kts | 255° |
| 2026-05-03 22:43 | 38.50158 | -81.00647 | 38084 ft | 395 kts | 255° |
| 2026-05-03 22:43 | 38.48827 | -81.07468 | 38080 ft | 395 kts | 255° |
| 2026-05-03 22:44 | 38.47494 | -81.14271 | 38084 ft | 395 kts | 255° |
| 2026-05-03 22:44 | 38.46164 | -81.21039 | 38081 ft | 396 kts | 255° |
| 2026-05-03 22:45 | 38.44816 | -81.27875 | 38076 ft | 397 kts | 255° |
| 2026-05-03 22:45 | 38.43473 | -81.34663 | 38081 ft | 397 kts | 255° |
| 2026-05-03 22:46 | 38.42116 | -81.41497 | 38079 ft | 398 kts | 255° |
| 2026-05-03 22:46 | 38.40752 | -81.48348 | 38072 ft | 399 kts | 255° |
| 2026-05-03 22:47 | 38.39384 | -81.55197 | 38075 ft | 399 kts | 255° |
| 2026-05-03 22:47 | 38.38011 | -81.62047 | 38072 ft | 399 kts | 255° |
| 2026-05-03 22:48 | 38.36633 | -81.68905 | 38071 ft | 400 kts | 255° |
| 2026-05-03 22:48 | 38.35249 | -81.75766 | 38071 ft | 400 kts | 255° |
| 2026-05-03 22:49 | 38.33533 | -81.82507 | 38073 ft | 400 kts | 250° |
| 2026-05-03 22:49 | 38.31632 | -81.89109 | 38070 ft | 399 kts | 250° |
| 2026-05-03 22:50 | 38.29727 | -81.95774 | 38079 ft | 400 kts | 250° |
| 2026-05-03 22:50 | 38.27842 | -82.02432 | 38078 ft | 400 kts | 250° |
| 2026-05-03 22:51 | 38.25953 | -82.09104 | 38081 ft | 400 kts | 250° |
| 2026-05-03 22:51 | 38.24066 | -82.15763 | 38081 ft | 400 kts | 250° |
| 2026-05-03 22:52 | 38.22182 | -82.22390 | 38080 ft | 401 kts | 250° |
| 2026-05-03 22:52 | 38.20279 | -82.29068 | 38078 ft | 402 kts | 250° |
| 2026-05-03 22:53 | 38.18370 | -82.35753 | 38077 ft | 402 kts | 250° |
| 2026-05-03 22:53 | 38.16458 | -82.42450 | 38069 ft | 403 kts | 250° |
| 2026-05-03 22:54 | 38.14541 | -82.49152 | 38068 ft | 403 kts | 250° |
| 2026-05-03 22:54 | 38.12622 | -82.55850 | 38072 ft | 404 kts | 250° |
| 2026-05-03 22:55 | 38.10709 | -82.62509 | 38069 ft | 404 kts | 250° |
| 2026-05-03 22:55 | 38.08778 | -82.69212 | 38075 ft | 404 kts | 250° |
| 2026-05-03 22:56 | 38.06841 | -82.75917 | 38072 ft | 404 kts | 250° |
| 2026-05-03 22:56 | 38.04913 | -82.82575 | 38074 ft | 404 kts | 250° |
| 2026-05-03 22:57 | 38.02975 | -82.89255 | 38078 ft | 404 kts | 250° |
| 2026-05-03 22:57 | 38.01027 | -82.95950 | 38079 ft | 403 kts | 250° |
| 2026-05-03 22:58 | 37.99079 | -83.02628 | 38081 ft | 403 kts | 250° |
| 2026-05-03 22:58 | 37.97141 | -83.09254 | 38087 ft | 403 kts | 250° |
| 2026-05-03 22:59 | 37.95214 | -83.15831 | 38086 ft | 403 kts | 250° |
| 2026-05-03 22:59 | 37.93256 | -83.22494 | 38085 ft | 403 kts | 250° |
| 2026-05-03 23:00 | 37.91292 | -83.29160 | 38084 ft | 404 kts | 250° |
| 2026-05-03 23:00 | 37.89328 | -83.35814 | 38083 ft | 404 kts | 250° |
| 2026-05-03 23:01 | 37.87690 | -83.41348 | 38084 ft | 404 kts | 250° |
| 2026-05-03 23:01 | 37.85714 | -83.48010 | 38081 ft | 404 kts | 250° |
| 2026-05-03 23:02 | 37.83737 | -83.54663 | 38086 ft | 404 kts | 250° |
| 2026-05-03 23:02 | 37.81754 | -83.61316 | 38086 ft | 404 kts | 250° |
| 2026-05-03 23:03 | 37.79779 | -83.67928 | 38083 ft | 404 kts | 250° |
| 2026-05-03 23:03 | 37.77789 | -83.74573 | 38079 ft | 404 kts | 250° |
| 2026-05-03 23:04 | 37.75796 | -83.81210 | 38075 ft | 403 kts | 250° |
| 2026-05-03 23:04 | 37.74818 | -83.84463 | 37877 ft | 395 kts | 250° |
| 2026-05-03 23:04 | 37.73841 | -83.87706 | 37253 ft | 394 kts | 250° |
| 2026-05-03 23:04 | 37.72866 | -83.90945 | 36506 ft | 396 kts | 250° |
| 2026-05-03 23:05 | 37.71877 | -83.94224 | 35740 ft | 399 kts | 250° |
| 2026-05-03 23:05 | 37.70882 | -83.97519 | 35006 ft | 402 kts | 250° |
| 2026-05-03 23:05 | 37.69881 | -84.00825 | 34290 ft | 404 kts | 250° |
| 2026-05-03 23:05 | 37.68875 | -84.04147 | 33470 ft | 406 kts | 250° |
| 2026-05-03 23:06 | 37.67865 | -84.07482 | 32627 ft | 408 kts | 250° |
| 2026-05-03 23:06 | 37.66859 | -84.10798 | 31755 ft | 410 kts | 250° |
| 2026-05-03 23:06 | 37.65842 | -84.14143 | 31369 ft | 402 kts | 250° |
| 2026-05-03 23:06 | 37.64875 | -84.17378 | 31228 ft | 388 kts | 251° |
| 2026-05-03 23:07 | 37.64016 | -84.20574 | 30791 ft | 382 kts | 252° |
| 2026-05-03 23:07 | 37.63204 | -84.23778 | 30184 ft | 382 kts | 253° |
| 2026-05-03 23:07 | 37.62406 | -84.26967 | 29504 ft | 381 kts | 253° |
| 2026-05-03 23:07 | 37.61606 | -84.30141 | 28881 ft | 378 kts | 253° |
| 2026-05-03 23:08 | 37.60816 | -84.33240 | 28282 ft | 375 kts | 253° |
| 2026-05-03 23:08 | 37.60015 | -84.36359 | 27686 ft | 372 kts | 253° |
| 2026-05-03 23:08 | 37.59214 | -84.39454 | 27098 ft | 370 kts | 253° |
| 2026-05-03 23:08 | 37.58416 | -84.42528 | 26529 ft | 368 kts | 253° |
| 2026-05-03 23:09 | 37.57621 | -84.45580 | 25980 ft | 365 kts | 254° |
| 2026-05-03 23:09 | 37.56828 | -84.48617 | 25438 ft | 364 kts | 254° |
| 2026-05-03 23:09 | 37.56039 | -84.51640 | 24911 ft | 362 kts | 254° |
| 2026-05-03 23:09 | 37.55251 | -84.54648 | 24383 ft | 360 kts | 254° |
| 2026-05-03 23:10 | 37.54467 | -84.57641 | 23884 ft | 358 kts | 255° |
| 2026-05-03 23:10 | 37.53690 | -84.60605 | 23344 ft | 356 kts | 255° |
| 2026-05-03 23:10 | 37.52914 | -84.63561 | 22791 ft | 353 kts | 255° |
| 2026-05-03 23:10 | 37.52146 | -84.66484 | 22275 ft | 350 kts | 255° |
| 2026-05-03 23:11 | 37.51384 | -84.69381 | 21772 ft | 347 kts | 255° |
| 2026-05-03 23:11 | 37.50627 | -84.72255 | 21276 ft | 344 kts | 255° |
| 2026-05-03 23:11 | 37.49874 | -84.75110 | 20780 ft | 341 kts | 255° |
| 2026-05-03 23:11 | 37.49138 | -84.77900 | 20293 ft | 339 kts | 255° |
| 2026-05-03 23:12 | 37.48398 | -84.80703 | 19844 ft | 335 kts | 255° |
| 2026-05-03 23:12 | 37.47666 | -84.83473 | 19468 ft | 330 kts | 255° |
| 2026-05-03 23:12 | 37.46942 | -84.86204 | 19056 ft | 327 kts | 255° |
| 2026-05-03 23:12 | 37.46260 | -84.88917 | 18585 ft | 323 kts | 261° |
| 2026-05-03 23:13 | 37.46191 | -84.91708 | 18085 ft | 318 kts | 281° |
| 2026-05-03 23:13 | 37.46854 | -84.94332 | 17644 ft | 314 kts | 294° |
| 2026-05-03 23:13 | 37.48017 | -84.96639 | 17140 ft | 315 kts | 309° |
| 2026-05-03 23:13 | 37.49638 | -84.98513 | 16637 ft | 316 kts | 317° |
| 2026-05-03 23:14 | 37.51328 | -85.00269 | 16186 ft | 314 kts | 317° |
| 2026-05-03 23:14 | 37.52978 | -85.02005 | 15758 ft | 311 kts | 316° |
| 2026-05-03 23:14 | 37.54614 | -85.03748 | 15482 ft | 304 kts | 316° |
| 2026-05-03 23:14 | 37.56220 | -85.05466 | 15079 ft | 302 kts | 316° |
| 2026-05-03 23:15 | 37.57881 | -85.07060 | 14643 ft | 305 kts | 327° |
| 2026-05-03 23:15 | 37.59907 | -85.07994 | 14214 ft | 310 kts | 339° |
| 2026-05-03 23:15 | 37.61975 | -85.08739 | 13835 ft | 307 kts | 338° |
| 2026-05-03 23:15 | 37.64026 | -85.09516 | 13381 ft | 306 kts | 338° |
| 2026-05-03 23:16 | 37.66054 | -85.10296 | 12947 ft | 304 kts | 338° |
| 2026-05-03 23:16 | 37.68071 | -85.11075 | 12519 ft | 303 kts | 338° |
| 2026-05-03 23:16 | 37.70072 | -85.11847 | 12290 ft | 295 kts | 338° |
| 2026-05-03 23:16 | 37.72010 | -85.12593 | 12010 ft | 289 kts | 338° |
| 2026-05-03 23:17 | 37.73932 | -85.13330 | 11624 ft | 288 kts | 338° |
| 2026-05-03 23:17 | 37.75837 | -85.14018 | 11250 ft | 288 kts | 339° |
| 2026-05-03 23:17 | 37.77765 | -85.14703 | 10881 ft | 287 kts | 339° |
| 2026-05-03 23:17 | 37.79678 | -85.15384 | 10517 ft | 286 kts | 339° |
| 2026-05-03 23:18 | 37.81581 | -85.16063 | 10349 ft | 278 kts | 339° |
| 2026-05-03 23:18 | 37.83405 | -85.16714 | 10264 ft | 267 kts | 339° |
| 2026-05-03 23:18 | 37.85172 | -85.17347 | 10081 ft | 261 kts | 339° |
| 2026-05-03 23:18 | 37.86917 | -85.17977 | 9760 ft | 260 kts | 339° |
| 2026-05-03 23:19 | 37.88661 | -85.18606 | 9433 ft | 260 kts | 339° |
| 2026-05-03 23:19 | 37.90378 | -85.19226 | 9102 ft | 259 kts | 339° |
| 2026-05-03 23:19 | 37.92129 | -85.19856 | 8812 ft | 258 kts | 340° |
| 2026-05-03 23:19 | 37.93825 | -85.20468 | 8533 ft | 256 kts | 340° |
| 2026-05-03 23:20 | 37.95519 | -85.21134 | 8209 ft | 254 kts | 332° |
| 2026-05-03 23:20 | 37.96895 | -85.22454 | 7915 ft | 248 kts | 313° |
| 2026-05-03 23:20 | 37.98134 | -85.23964 | 7606 ft | 248 kts | 315° |
| 2026-05-03 23:20 | 37.99414 | -85.25435 | 7268 ft | 249 kts | 316° |
| 2026-05-03 23:21 | 38.00698 | -85.26910 | 6994 ft | 247 kts | 316° |
| 2026-05-03 23:21 | 38.01966 | -85.28375 | 6674 ft | 247 kts | 316° |
| 2026-05-03 23:21 | 38.03239 | -85.29852 | 6363 ft | 247 kts | 316° |
| 2026-05-03 23:21 | 38.04500 | -85.31316 | 6109 ft | 245 kts | 316° |
| 2026-05-03 23:22 | 38.07038 | -85.34268 | 5994 ft | 248 kts | 316° |
| 2026-05-03 23:22 | 38.08289 | -85.35725 | 5992 ft | 246 kts | 316° |
| 2026-05-03 23:22 | 38.09550 | -85.37195 | 6000 ft | 246 kts | 316° |
| 2026-05-03 23:23 | 38.10812 | -85.38665 | 5990 ft | 247 kts | 316° |
| 2026-05-03 23:23 | 38.12078 | -85.40142 | 6000 ft | 247 kts | 316° |
| 2026-05-03 23:23 | 38.13345 | -85.41621 | 5984 ft | 247 kts | 316° |
| 2026-05-03 23:23 | 38.14613 | -85.43102 | 5994 ft | 247 kts | 316° |
| 2026-05-03 23:24 | 38.15880 | -85.44583 | 5984 ft | 247 kts | 316° |
| 2026-05-03 23:24 | 38.17132 | -85.46046 | 5988 ft | 248 kts | 316° |
| 2026-05-03 23:24 | 38.18404 | -85.47533 | 5977 ft | 248 kts | 316° |
| 2026-05-03 23:24 | 38.19670 | -85.49014 | 5984 ft | 247 kts | 316° |
| 2026-05-03 23:25 | 38.20931 | -85.50489 | 5945 ft | 244 kts | 316° |
| 2026-05-03 23:25 | 38.22177 | -85.51948 | 5666 ft | 243 kts | 316° |
| 2026-05-03 23:25 | 38.23426 | -85.53412 | 5295 ft | 245 kts | 316° |
| 2026-05-03 23:25 | 38.24681 | -85.54884 | 4992 ft | 245 kts | 316° |
| 2026-05-03 23:26 | 38.25934 | -85.56353 | 4719 ft | 244 kts | 315° |
| 2026-05-03 23:26 | 38.27186 | -85.57821 | 4409 ft | 245 kts | 315° |
| 2026-05-03 23:26 | 38.28435 | -85.59288 | 4152 ft | 243 kts | 315° |
| 2026-05-03 23:26 | 38.29671 | -85.60740 | 3874 ft | 242 kts | 315° |
| 2026-05-03 23:27 | 38.30914 | -85.62201 | 3534 ft | 244 kts | 315° |
| 2026-05-03 23:27 | 38.32160 | -85.63666 | 3225 ft | 243 kts | 315° |
| 2026-05-03 23:27 | 38.33380 | -85.65100 | 3049 ft | 240 kts | 315° |
| 2026-05-03 23:27 | 38.34584 | -85.66517 | 2969 ft | 231 kts | 315° |
| 2026-05-03 23:28 | 38.35828 | -85.67737 | 2943 ft | 222 kts | 328° |
| 2026-05-03 23:28 | 38.37028 | -85.68840 | 2933 ft | 206 kts | 304° |
| 2026-05-03 23:28 | 38.37488 | -85.70444 | 2955 ft | 189 kts | 268° |
| 2026-05-03 23:28 | 38.37064 | -85.71944 | 2961 ft | 181 kts | 230° |
| 2026-05-03 23:29 | 38.36130 | -85.73047 | 2981 ft | 185 kts | 220° |
| 2026-05-03 23:29 | 38.35101 | -85.74010 | 2954 ft | 181 kts | 218° |
| 2026-05-03 23:29 | 38.34095 | -85.74933 | 2972 ft | 175 kts | 218° |
| 2026-05-03 23:29 | 38.33104 | -85.75834 | 2972 ft | 175 kts | 218° |
| 2026-05-03 23:30 | 38.32122 | -85.76708 | 2949 ft | 169 kts | 213° |
| 2026-05-03 23:30 | 38.31007 | -85.77027 | 2928 ft | 171 kts | 172° |
| 2026-05-03 23:30 | 38.29825 | -85.76560 | 2733 ft | 183 kts | 170° |
| 2026-05-03 23:30 | 38.28600 | -85.76375 | 2505 ft | 173 kts | 178° |
| 2026-05-03 23:31 | 38.27445 | -85.76112 | 2326 ft | 164 kts | 170° |
| 2026-05-03 23:31 | 38.26413 | -85.75769 | 2099 ft | 151 kts | 169° |
| 2026-05-03 23:31 | 38.25429 | -85.75432 | 1950 ft | 146 kts | 169° |
| 2026-05-03 23:31 | 38.24432 | -85.75091 | 1730 ft | 147 kts | 168° |
| 2026-05-03 23:32 | 38.23429 | -85.74747 | 1511 ft | 149 kts | 168° |
| 2026-05-03 23:32 | 38.22442 | -85.74400 | 1314 ft | 144 kts | 167° |
| 2026-05-03 23:32 | 38.21509 | -85.74034 | 1111 ft | 139 kts | 169° |
| 2026-05-03 23:32 | 38.20576 | -85.73717 | 886 ft | 137 kts | 172° |
| 2026-05-03 23:33 | 38.19667 | -85.73450 | 672 ft | 132 kts | 167° |
| 2026-05-03 23:33 | 38.18756 | -85.73142 | 542 ft | 138 kts | 166° |
| 2026-05-03 23:33 | 38.17851 | -85.72829 | 493 ft | 125 kts | 165° |
| 2026-05-03 23:33 | 38.17184 | -85.72599 | 480 ft | 46 kts | 166° |
| 2026-05-03 23:34 | 38.16977 | -85.72506 | 474 ft | 24 kts | 149° |
| 2026-05-03 23:34 | 38.16820 | -85.72468 | 480 ft | 23 kts | 171° |
| 2026-05-03 23:34 | 38.16666 | -85.72435 | 476 ft | 22 kts | 168° |
| 2026-05-03 23:34 | 38.16572 | -85.72462 | 478 ft | 14 kts | 244° |
| 2026-05-03 23:35 | 38.16597 | -85.72565 | 482 ft | 13 kts | 336° |
| 2026-05-03 23:35 | 38.16613 | -85.72573 | 484 ft | 0 kts | 338° |
| 2026-05-03 23:36 | 38.16625 | -85.72579 | 479 ft | 4 kts | 338° |
| 2026-05-03 23:37 | 38.16662 | -85.72597 | 480 ft | 8 kts | 339° |
| 2026-05-03 23:37 | 38.16732 | -85.72624 | 478 ft | 13 kts | 344° |
| 2026-05-03 23:37 | 38.16832 | -85.72659 | 479 ft | 16 kts | 345° |
| 2026-05-03 23:37 | 38.16948 | -85.72697 | 480 ft | 18 kts | 346° |
| 2026-05-03 23:38 | 38.17078 | -85.72738 | 478 ft | 20 kts | 346° |
| 2026-05-03 23:38 | 38.17214 | -85.72782 | 483 ft | 20 kts | 345° |
| 2026-05-03 23:38 | 38.17352 | -85.72828 | 484 ft | 22 kts | 345° |
| 2026-05-03 23:38 | 38.17499 | -85.72877 | 482 ft | 22 kts | 345° |
| 2026-05-03 23:39 | 38.17585 | -85.72935 | 486 ft | 15 kts | 303° |
| 2026-05-03 23:39 | 38.17633 | -85.73067 | 484 ft | 18 kts | 291° |
| 2026-05-03 23:39 | 38.17682 | -85.73226 | 484 ft | 21 kts | 289° |
| 2026-05-03 23:39 | 38.17768 | -85.73329 | 480 ft | 19 kts | 350° |
| 2026-05-03 23:40 | 38.17895 | -85.73356 | 484 ft | 18 kts | 351° |
| 2026-05-03 23:40 | 38.18012 | -85.73409 | 483 ft | 18 kts | 329° |
| 2026-05-03 23:40 | 38.18125 | -85.73493 | 494 ft | 19 kts | 329° |
| 2026-05-03 23:40 | 38.18238 | -85.73578 | 492 ft | 19 kts | 329° |
| 2026-05-03 23:41 | 38.18350 | -85.73660 | 487 ft | 9 kts | 329° |
| 2026-05-03 23:41 | 38.18348 | -85.73739 | 487 ft | 12 kts | 243° |
| 2026-05-03 23:41 | 38.18298 | -85.73854 | 484 ft | 17 kts | 238° |
| 2026-05-03 23:41 | 38.18238 | -85.73978 | 485 ft | 13 kts | 240° |
| 2026-05-03 23:42 | 38.18239 | -85.74060 | 480 ft | 2 kts | 287° |
| 2026-05-03 23:42 | 38.18243 | -85.74077 | 485 ft | 0 kts | 287° |